createdAt,value
2018-04-10T00:00:23.451Z,15.17
2018-04-10T00:02:56.723Z,15.15
2018-04-10T00:05:29.982Z,15.12
2018-04-10T00:08:03.255Z,15.10
2018-04-10T00:10:36.511Z,15.07
2018-04-10T00:13:10.548Z,15.04
2018-04-10T00:15:43.800Z,15.01
2018-04-10T00:18:17.077Z,14.98
2018-04-10T00:20:50.325Z,14.95
2018-04-10T00:23:23.599Z,14.92
2018-04-10T00:25:56.851Z,14.90
2018-04-10T00:28:30.126Z,14.89
2018-04-10T00:31:03.375Z,14.87
2018-04-10T00:33:36.656Z,14.83
2018-04-10T00:36:09.908Z,14.81
2018-04-10T00:38:43.178Z,14.79
2018-04-10T00:41:16.436Z,14.78
2018-04-10T00:43:49.718Z,14.75
2018-04-10T00:46:22.967Z,14.74
2018-04-10T00:48:56.264Z,14.71
2018-04-10T00:51:29.511Z,14.69
2018-04-10T00:54:03.583Z,14.65
2018-04-10T00:56:36.835Z,14.63
2018-04-10T00:59:10.135Z,14.59
2018-04-10T01:01:43.388Z,14.57
2018-04-10T01:04:16.658Z,14.54
2018-04-10T01:06:49.915Z,14.50
2018-04-10T01:09:23.199Z,14.47
2018-04-10T01:11:57.214Z,14.45
2018-04-10T01:14:30.488Z,14.41
2018-04-10T01:17:03.739Z,14.35
2018-04-10T01:19:37.011Z,14.30
2018-04-10T01:22:10.273Z,14.28
2018-04-10T01:24:43.558Z,14.25
2018-04-10T01:27:16.811Z,14.21
2018-04-10T01:29:50.090Z,14.17
2018-04-10T01:32:23.348Z,14.10
2018-04-10T01:34:56.610Z,14.06
2018-04-10T01:37:29.863Z,13.99
2018-04-10T01:40:03.139Z,13.92
2018-04-10T01:42:36.392Z,13.84
2018-04-10T01:45:09.666Z,13.79
2018-04-10T01:47:42.919Z,13.74
2018-04-10T01:50:16.964Z,13.65
2018-04-10T01:52:50.214Z,13.58
2018-04-10T01:55:23.485Z,13.53
2018-04-10T01:57:56.743Z,13.51
2018-04-10T02:00:30.014Z,13.49
2018-04-10T02:03:04.036Z,13.48
2018-04-10T02:05:37.309Z,13.48
2018-04-10T02:08:10.567Z,13.48
2018-04-10T02:10:43.844Z,13.45
2018-04-10T02:13:17.087Z,13.43
2018-04-10T02:15:51.127Z,13.40
2018-04-10T02:18:24.388Z,13.36
2018-04-10T02:20:57.659Z,13.33
2018-04-10T02:23:30.915Z,13.29
2018-04-10T02:26:04.188Z,13.26
2018-04-10T02:28:38.202Z,13.25
2018-04-10T02:31:11.471Z,13.30
2018-04-10T02:33:45.503Z,13.32
2018-04-10T02:36:18.767Z,13.31
2018-04-10T02:38:52.023Z,13.30
2018-04-10T02:41:25.291Z,13.27
2018-04-10T02:43:58.543Z,13.24
2018-04-10T02:46:31.818Z,13.22
2018-04-10T02:49:05.063Z,13.19
2018-04-10T02:51:38.339Z,13.16
2018-04-10T02:54:11.596Z,13.13
2018-04-10T02:56:44.864Z,13.09
2018-04-10T02:59:18.112Z,13.06
2018-04-10T03:01:51.384Z,13.02
2018-04-10T03:04:24.636Z,12.96
2018-04-10T03:06:57.902Z,12.92
2018-04-10T03:09:31.159Z,12.89
2018-04-10T03:12:04.431Z,12.85
2018-04-10T03:14:37.687Z,12.82
2018-04-10T03:17:10.970Z,12.78
2018-04-10T03:19:44.215Z,12.75
2018-04-10T03:22:17.491Z,12.74
2018-04-10T03:24:50.743Z,12.73
2018-04-10T03:27:24.031Z,12.71
2018-04-10T03:29:57.275Z,12.68
2018-04-10T03:32:30.557Z,12.67
2018-04-10T03:35:04.572Z,12.59
2018-04-10T03:37:38.610Z,12.55
2018-04-10T03:40:11.879Z,12.55
2018-04-10T03:42:45.922Z,12.55
2018-04-10T03:45:19.172Z,12.55
2018-04-10T03:47:53.253Z,12.57
2018-04-10T03:50:26.491Z,12.57
2018-04-10T03:53:00.531Z,12.58
2018-04-10T03:55:33.776Z,12.58
2018-04-10T03:58:07.078Z,12.57
2018-04-10T04:00:41.099Z,12.58
2018-04-10T04:03:15.136Z,12.58
2018-04-10T04:05:48.391Z,12.57
2018-04-10T04:08:21.658Z,12.57
2018-04-10T04:10:54.916Z,12.54
2018-04-10T04:13:28.195Z,12.54
2018-04-10T04:16:02.255Z,12.51
2018-04-10T04:18:53.599Z,12.48
2018-04-10T04:21:44.807Z,12.45
2018-04-10T04:24:18.091Z,12.42
2018-04-10T04:26:51.357Z,12.40
2018-04-10T04:29:24.628Z,12.37
2018-04-10T04:31:57.879Z,12.34
2018-04-10T04:34:31.923Z,12.30
2018-04-10T04:37:05.946Z,12.26
2018-04-10T04:39:39.216Z,12.22
2018-04-10T04:42:13.226Z,12.20
2018-04-10T04:44:47.265Z,12.18
2018-04-10T04:47:20.521Z,12.12
2018-04-10T04:49:53.792Z,12.07
2018-04-10T04:52:27.065Z,12.04
2018-04-10T04:55:00.335Z,12.05
2018-04-10T04:57:33.590Z,12.05
2018-04-10T05:00:06.980Z,12.06
2018-04-10T05:02:40.233Z,12.07
2018-04-10T05:05:13.687Z,12.08
2018-04-10T05:07:47.715Z,12.09
2018-04-10T05:10:21.936Z,12.11
2018-04-10T05:12:55.195Z,12.12
2018-04-10T05:15:28.488Z,12.13
2018-04-10T05:18:01.739Z,12.15
2018-04-10T05:20:35.009Z,12.17
2018-04-10T05:23:09.026Z,12.21
2018-04-10T05:25:42.307Z,12.23
2018-04-10T05:28:17.348Z,12.25
2018-04-10T05:30:51.569Z,12.27
2018-04-10T05:33:25.589Z,12.29
2018-04-10T05:35:58.963Z,12.32
2018-04-10T05:38:32.983Z,12.37
2018-04-10T05:41:07.039Z,12.44
2018-04-10T05:43:40.300Z,12.50
2018-04-10T05:46:13.592Z,12.56
2018-04-10T05:48:47.611Z,12.61
2018-04-10T05:51:21.601Z,12.65
2018-04-10T05:53:55.616Z,12.69
2018-04-10T05:56:29.652Z,12.73
2018-04-10T05:59:02.902Z,12.74
2018-04-10T06:01:36.172Z,12.76
2018-04-10T06:04:09.436Z,12.79
2018-04-10T06:06:42.712Z,12.83
2018-04-10T06:09:15.991Z,12.86
2018-04-10T06:11:50.039Z,12.91
2018-04-10T06:14:23.312Z,12.97
2018-04-10T06:16:57.347Z,13.02
2018-04-10T06:19:30.603Z,13.07
2018-04-10T06:22:04.639Z,13.13
2018-04-10T06:24:37.897Z,13.19
2018-04-10T06:27:11.165Z,13.25
2018-04-10T06:29:44.434Z,13.31
2018-04-10T06:32:17.718Z,13.39
2018-04-10T06:34:50.963Z,13.45
2018-04-10T06:37:24.253Z,13.53
2018-04-10T06:39:57.503Z,13.58
2018-04-10T06:42:30.774Z,13.62
2018-04-10T06:45:04.029Z,13.65
2018-04-10T06:47:37.344Z,13.69
2018-04-10T06:50:10.559Z,13.72
2018-04-10T06:52:43.830Z,13.75
2018-04-10T06:55:17.889Z,13.79
2018-04-10T06:57:51.147Z,13.83
2018-04-10T07:00:24.454Z,13.90
2018-04-10T07:02:57.716Z,13.97
2018-04-10T07:05:31.011Z,14.03
2018-04-10T07:08:04.263Z,14.08
2018-04-10T07:10:37.571Z,14.11
2018-04-10T07:13:10.804Z,14.15
2018-04-10T07:15:44.084Z,14.20
2018-04-10T07:18:17.351Z,14.24
2018-04-10T07:20:51.207Z,14.27
2018-04-10T07:23:24.464Z,14.32
2018-04-10T07:25:57.741Z,14.35
2018-04-10T07:28:30.995Z,14.39
2018-04-10T07:31:04.273Z,14.45
2018-04-10T07:33:37.524Z,14.49
2018-04-10T07:36:10.800Z,14.54
2018-04-10T07:38:44.047Z,14.60
2018-04-10T07:41:17.328Z,14.64
2018-04-10T07:43:50.596Z,14.67
2018-04-10T07:46:23.862Z,14.73
2018-04-10T07:48:57.111Z,14.76
2018-04-10T07:51:30.391Z,14.77
2018-04-10T07:54:03.651Z,14.78
2018-04-10T07:56:36.923Z,14.83
2018-04-10T07:59:10.179Z,14.87
2018-04-10T08:01:43.455Z,14.89
2018-04-10T08:04:16.726Z,14.92
2018-04-10T08:06:50.012Z,14.94
2018-04-10T08:09:24.036Z,14.98
2018-04-10T08:11:57.327Z,14.99
2018-04-10T08:14:30.578Z,15.03
2018-04-10T08:17:03.862Z,15.04
2018-04-10T08:19:37.127Z,15.07
2018-04-10T08:22:10.407Z,15.09
2018-04-10T08:24:43.680Z,15.12
2018-04-10T08:27:16.951Z,15.16
2018-04-10T08:29:50.198Z,15.21
2018-04-10T08:32:23.476Z,15.27
2018-04-10T08:34:56.742Z,15.31
2018-04-10T08:37:33.788Z,15.37
2018-04-10T08:40:07.044Z,15.42
2018-04-10T08:42:40.334Z,15.46
2018-04-10T08:45:13.592Z,15.52
2018-04-10T08:47:46.873Z,15.58
2018-04-10T08:50:20.119Z,15.66
2018-04-10T08:52:53.395Z,15.74
2018-04-10T08:55:26.652Z,15.78
2018-04-10T08:57:59.924Z,15.81
2018-04-10T09:00:33.183Z,15.88
2018-04-10T09:03:06.466Z,15.92
2018-04-10T09:05:40.480Z,15.99
2018-04-10T09:08:14.537Z,16.04
2018-04-10T09:10:47.795Z,16.10
2018-04-10T09:13:21.831Z,16.16
2018-04-10T09:15:55.079Z,16.23
2018-04-10T09:18:29.117Z,16.27
2018-04-10T09:21:02.360Z,16.34
2018-04-10T09:23:35.644Z,16.37
2018-04-10T09:26:08.905Z,16.35
2018-04-10T09:28:42.179Z,16.41
2018-04-10T09:31:16.203Z,16.44
2018-04-10T09:33:49.484Z,16.50
2018-04-10T09:36:23.502Z,16.54
2018-04-10T09:38:56.783Z,16.54
2018-04-10T09:41:30.827Z,16.56
2018-04-10T09:44:04.090Z,16.59
2018-04-10T09:46:38.128Z,16.61
2018-04-10T09:49:11.427Z,16.65
2018-04-10T09:51:44.684Z,16.69
2018-04-10T09:54:18.109Z,16.74
2018-04-10T09:56:51.371Z,16.82
2018-04-10T09:59:24.770Z,16.89
2018-04-10T10:01:58.020Z,16.95
2018-04-10T10:04:31.395Z,17.02
2018-04-10T10:07:04.651Z,17.08
2018-04-10T10:09:38.699Z,17.16
2018-04-10T10:12:11.950Z,17.22
2018-04-10T10:14:45.259Z,17.30
2018-04-10T10:17:18.490Z,17.32
2018-04-10T10:19:51.797Z,17.38
2018-04-10T10:22:25.027Z,17.46
2018-04-10T10:24:58.423Z,17.52
2018-04-10T10:27:31.675Z,17.55
2018-04-10T10:30:04.975Z,17.60
2018-04-10T10:32:38.240Z,17.60
2018-04-10T10:35:11.512Z,17.66
2018-04-10T10:37:45.543Z,17.74
2018-04-10T10:40:18.816Z,17.84
2018-04-10T10:42:52.848Z,17.93
2018-04-10T10:45:26.344Z,17.99
2018-04-10T10:47:59.612Z,18.06
2018-04-10T10:50:33.084Z,18.14
2018-04-10T10:53:06.353Z,18.17
2018-04-10T10:55:39.622Z,18.20
2018-04-10T10:58:12.883Z,18.27
2018-04-10T11:00:46.156Z,18.37
2018-04-10T11:03:19.419Z,18.49
2018-04-10T11:05:52.682Z,18.63
2018-04-10T11:08:26.707Z,18.69
2018-04-10T11:10:59.976Z,18.75
2018-04-10T11:13:33.236Z,18.84
2018-04-10T11:16:06.514Z,18.92
2018-04-10T11:18:39.767Z,19.01
2018-04-10T11:21:13.809Z,19.09
2018-04-10T11:23:47.069Z,19.15
2018-04-10T11:26:20.335Z,19.21
2018-04-10T11:28:53.608Z,19.18
2018-04-10T11:31:26.882Z,19.21
2018-04-10T11:34:00.140Z,19.31
2018-04-10T11:36:33.419Z,19.41
2018-04-10T11:39:07.476Z,19.50
2018-04-10T11:41:41.508Z,19.60
2018-04-10T11:44:14.755Z,19.71
2018-04-10T11:46:48.031Z,19.83
2018-04-10T11:49:21.279Z,19.93
2018-04-10T11:51:54.556Z,20.01
2018-04-10T11:54:28.571Z,20.07
2018-04-10T11:57:01.843Z,20.04
2018-04-10T11:59:35.103Z,20.06
2018-04-10T12:02:08.371Z,20.12
2018-04-10T12:04:41.641Z,20.20
2018-04-10T12:07:15.683Z,20.26
2018-04-10T12:09:48.943Z,20.37
2018-04-10T12:12:22.987Z,20.39
2018-04-10T12:14:56.252Z,20.40
2018-04-10T12:17:30.306Z,20.40
2018-04-10T12:20:03.560Z,20.38
2018-04-10T12:22:37.603Z,20.44
2018-04-10T12:25:10.853Z,20.56
2018-04-10T12:27:44.894Z,20.63
2018-04-10T12:30:18.151Z,20.74
2018-04-10T12:32:51.427Z,20.89
2018-04-10T12:35:24.696Z,21.05
2018-04-10T12:37:57.976Z,21.16
2018-04-10T12:40:31.226Z,21.25
2018-04-10T12:43:04.509Z,21.38
2018-04-10T12:45:37.759Z,21.52
2018-04-10T12:48:11.044Z,21.62
2018-04-10T12:50:44.290Z,21.77
2018-04-10T12:53:17.567Z,21.91
2018-04-10T12:55:50.823Z,21.98
2018-04-10T12:58:24.099Z,22.04
2018-04-10T13:00:57.344Z,22.12
2018-04-10T13:03:30.614Z,22.19
2018-04-10T13:06:03.879Z,22.24
2018-04-10T13:08:37.921Z,22.26
2018-04-10T13:11:11.181Z,22.23
2018-04-10T13:13:45.243Z,22.27
2018-04-10T13:16:18.462Z,22.32
2018-04-10T13:18:51.739Z,22.31
2018-04-10T13:21:24.999Z,22.28
2018-04-10T13:23:58.280Z,22.27
2018-04-10T13:26:31.539Z,22.32
2018-04-10T13:29:04.823Z,22.39
2018-04-10T13:31:38.071Z,22.42
2018-04-10T13:34:11.345Z,22.44
2018-04-10T13:36:45.367Z,22.47
2018-04-10T13:39:18.634Z,22.48
2018-04-10T13:41:51.903Z,22.38
2018-04-10T13:44:25.175Z,22.38
2018-04-10T13:46:58.435Z,22.41
2018-04-10T13:49:32.476Z,22.52
2018-04-10T13:52:05.728Z,22.63
2018-04-10T13:54:39.774Z,22.65
2018-04-10T13:57:13.043Z,22.77
2018-04-10T13:59:47.080Z,22.89
2018-04-10T14:02:20.331Z,22.89
2018-04-10T14:04:53.634Z,22.97
2018-04-10T14:07:26.872Z,23.03
2018-04-10T14:10:00.174Z,23.13
2018-04-10T14:12:33.428Z,23.28
2018-04-10T14:15:07.487Z,23.43
2018-04-10T14:17:40.735Z,23.52
2018-04-10T14:20:14.820Z,23.52
2018-04-10T14:22:48.073Z,23.44
2018-04-10T14:25:21.347Z,23.37
2018-04-10T14:27:54.601Z,23.36
2018-04-10T14:30:27.873Z,23.41
2018-04-10T14:33:01.133Z,23.50
2018-04-10T14:35:34.416Z,23.51
2018-04-10T14:38:07.679Z,23.55
2018-04-10T14:40:40.957Z,23.62
2018-04-10T14:43:14.208Z,23.68
2018-04-10T14:45:47.694Z,23.70
2018-04-10T14:48:20.956Z,23.57
2018-04-10T14:50:54.257Z,23.38
2018-04-10T14:53:27.513Z,23.21
2018-04-10T14:56:00.796Z,23.08
2018-04-10T14:58:34.045Z,22.98
2018-04-10T15:01:08.087Z,22.93
2018-04-10T15:03:41.337Z,22.83
2018-04-10T15:06:15.388Z,22.80
2018-04-10T15:08:48.636Z,22.79
2018-04-10T15:11:22.688Z,22.82
2018-04-10T15:13:55.960Z,22.82
2018-04-10T15:16:29.227Z,22.93
2018-04-10T15:19:02.508Z,23.01
2018-04-10T15:21:35.790Z,23.06
2018-04-10T15:24:09.031Z,23.22
2018-04-10T15:26:43.067Z,23.40
2018-04-10T15:29:16.327Z,23.52
2018-04-10T15:31:49.616Z,23.62
2018-04-10T15:34:22.870Z,23.80
2018-04-10T15:36:56.149Z,23.93
2018-04-10T15:39:29.412Z,24.01
2018-04-10T15:42:02.676Z,24.07
2018-04-10T15:44:35.932Z,24.12
2018-04-10T15:47:09.218Z,24.13
2018-04-10T15:49:43.219Z,24.10
2018-04-10T15:52:17.275Z,24.01
2018-04-10T15:54:50.527Z,23.82
2018-04-10T15:57:24.592Z,23.56
2018-04-10T15:59:57.839Z,23.36
2018-04-10T16:02:31.135Z,23.12
2018-04-10T16:05:04.384Z,22.92
2018-04-10T16:07:37.658Z,22.72
2018-04-10T16:10:10.908Z,22.61
2018-04-10T16:12:44.971Z,22.53
2018-04-10T16:15:18.221Z,22.43
2018-04-10T16:17:51.509Z,22.31
2018-04-10T16:20:25.533Z,22.20
2018-04-10T16:22:58.799Z,22.13
2018-04-10T16:25:32.059Z,22.03
2018-04-10T16:28:05.319Z,21.90
2018-04-10T16:30:38.969Z,21.69
2018-04-10T16:33:12.378Z,21.54
2018-04-10T16:35:45.739Z,21.40
2018-04-10T16:38:19.023Z,21.32
2018-04-10T16:40:52.283Z,21.28
2018-04-10T16:43:25.579Z,21.22
2018-04-10T16:45:59.599Z,21.15
2018-04-10T16:48:32.873Z,21.10
2018-04-10T16:51:06.896Z,21.02
2018-04-10T16:53:40.932Z,20.97
2018-04-10T16:56:14.195Z,20.91
2018-04-10T16:58:48.231Z,20.84
2018-04-10T17:01:21.496Z,20.77
2018-04-10T17:03:55.536Z,20.69
2018-04-10T17:06:28.803Z,20.64
2018-04-10T17:09:02.841Z,20.61
2018-04-10T17:11:36.088Z,20.57
2018-04-10T17:14:09.364Z,20.52
2018-04-10T17:16:42.632Z,20.49
2018-04-10T17:19:15.903Z,20.44
2018-04-10T17:21:49.932Z,20.39
2018-04-10T17:24:23.223Z,20.35
2018-04-10T17:26:56.463Z,20.34
2018-04-10T17:29:29.744Z,20.32
2018-04-10T17:32:02.998Z,20.29
2018-04-10T17:34:36.278Z,20.28
2018-04-10T17:37:10.295Z,20.26
2018-04-10T17:39:43.577Z,20.24
2018-04-10T17:42:16.826Z,20.24
2018-04-10T17:44:50.097Z,20.21
2018-04-10T17:47:23.352Z,20.18
2018-04-10T17:49:56.625Z,20.14
2018-04-10T17:52:29.872Z,20.12
2018-04-10T17:55:03.149Z,20.10
2018-04-10T17:57:37.160Z,20.11
2018-04-10T18:00:11.212Z,20.10
2018-04-10T18:02:44.476Z,20.10
2018-04-10T18:05:18.577Z,20.21
2018-04-10T18:07:52.591Z,20.19
2018-04-10T18:10:26.668Z,20.16
2018-04-10T18:12:59.913Z,20.13
2018-04-10T18:15:33.180Z,20.11
2018-04-10T18:18:07.195Z,20.10
2018-04-10T18:20:41.269Z,20.06
2018-04-10T18:23:14.515Z,20.03
2018-04-10T18:25:47.795Z,20.00
2018-04-10T18:28:21.840Z,19.97
2018-04-10T18:30:55.087Z,19.95
2018-04-10T18:33:28.412Z,19.93
2018-04-10T18:36:02.433Z,19.87
2018-04-10T18:38:35.719Z,19.80
2018-04-10T18:41:09.730Z,19.75
2018-04-10T18:43:43.005Z,19.43
2018-04-10T18:46:17.027Z,19.11
2018-04-10T18:48:51.076Z,18.86
2018-04-10T18:51:24.333Z,18.71
2018-04-10T18:53:57.603Z,18.41
2018-04-10T18:56:30.863Z,18.04
2018-04-10T18:59:04.141Z,17.88
2018-04-10T19:01:37.407Z,17.60
2018-04-10T19:04:11.455Z,17.27
2018-04-10T19:06:44.704Z,17.10
2018-04-10T19:09:17.987Z,16.84
2018-04-10T19:11:51.231Z,16.73
2018-04-10T19:14:24.510Z,16.52
2018-04-10T19:16:57.766Z,16.40
2018-04-10T19:19:31.040Z,16.34
2018-04-10T19:22:04.297Z,16.32
2018-04-10T19:24:37.572Z,16.19
2018-04-10T19:27:10.831Z,16.11
2018-04-10T19:29:44.108Z,15.97
2018-04-10T19:32:17.376Z,15.89
2018-04-10T19:34:50.643Z,15.83
2018-04-10T19:37:24.667Z,15.82
2018-04-10T19:39:57.980Z,15.78
2018-04-10T19:42:31.217Z,15.73
2018-04-10T19:45:04.526Z,15.67
2018-04-10T19:47:37.751Z,15.64
2018-04-10T19:50:11.442Z,15.53
2018-04-10T19:52:44.692Z,15.44
2018-04-10T19:55:18.000Z,15.22
2018-04-10T19:57:51.247Z,15.22
2018-04-10T20:00:24.531Z,15.03
2018-04-10T20:02:57.784Z,14.98
2018-04-10T20:05:31.104Z,14.86
2018-04-10T20:08:04.319Z,14.74
2018-04-10T20:10:37.601Z,14.64
2018-04-10T20:13:10.852Z,14.59
2018-04-10T20:15:44.152Z,14.55
2018-04-10T20:18:17.405Z,14.58
2018-04-10T20:20:50.799Z,14.59
2018-04-10T20:23:24.047Z,14.61
2018-04-10T20:25:58.112Z,14.57
2018-04-10T20:28:31.367Z,14.50
2018-04-10T20:31:04.663Z,14.47
2018-04-10T20:33:37.926Z,14.46
2018-04-10T20:36:11.669Z,14.38
2018-04-10T20:38:45.080Z,14.30
2018-04-10T20:41:18.352Z,14.23
2018-04-10T20:43:51.594Z,14.26
2018-04-10T20:46:24.901Z,14.25
2018-04-10T20:48:58.189Z,14.28
2018-04-10T20:51:31.451Z,14.34
2018-04-10T20:54:04.712Z,14.37
2018-04-10T20:56:38.758Z,14.43
2018-04-10T20:59:12.023Z,14.45
2018-04-10T21:01:46.060Z,14.45
2018-04-10T21:04:19.323Z,14.44
2018-04-10T21:06:52.595Z,14.47
2018-04-10T21:09:25.853Z,14.51
2018-04-10T21:11:59.139Z,14.47
2018-04-10T21:14:32.388Z,14.45
2018-04-10T21:17:06.436Z,14.38
2018-04-10T21:19:39.694Z,14.26
2018-04-10T21:22:12.971Z,14.16
2018-04-10T21:24:46.224Z,14.09
2018-04-10T21:27:19.502Z,14.05
2018-04-10T21:29:52.758Z,14.05
2018-04-10T21:32:26.035Z,14.06
2018-04-10T21:34:59.283Z,14.05
2018-04-10T21:37:32.564Z,14.07
2018-04-10T21:40:05.812Z,14.09
2018-04-10T21:42:44.644Z,14.07
2018-04-10T21:45:17.892Z,14.05
2018-04-10T21:47:51.163Z,14.05
2018-04-10T21:50:25.197Z,14.03
2018-04-10T21:52:58.476Z,13.99
2018-04-10T21:55:32.494Z,14.02
2018-04-10T21:58:05.780Z,14.01
2018-04-10T22:00:39.027Z,13.94
2018-04-10T22:03:12.300Z,13.92
2018-04-10T22:05:45.550Z,13.89
2018-04-10T22:08:19.591Z,13.88
2018-04-10T22:10:52.856Z,13.83
2018-04-10T22:13:26.910Z,13.80
2018-04-10T22:16:00.158Z,13.81
2018-04-10T22:18:34.191Z,13.85
2018-04-10T22:21:07.447Z,13.90
2018-04-10T22:23:40.724Z,13.97
2018-04-10T22:26:13.976Z,14.02
2018-04-10T22:28:47.250Z,14.01
2018-04-10T22:31:20.505Z,13.96
2018-04-10T22:33:53.738Z,13.94
2018-04-10T22:36:27.004Z,13.91
2018-04-10T22:39:01.041Z,13.90
2018-04-10T22:41:34.320Z,13.87
2018-04-10T22:44:07.571Z,13.88
2018-04-10T22:46:40.844Z,13.88
2018-04-10T22:49:14.100Z,13.87
2018-04-10T22:51:48.137Z,13.84
2018-04-10T22:54:26.476Z,13.82
2018-04-10T22:56:59.749Z,13.78
2018-04-10T22:59:33.003Z,13.76
2018-04-10T23:02:07.057Z,13.78
2018-04-10T23:04:40.311Z,13.81
2018-04-10T23:07:14.397Z,13.85
2018-04-10T23:09:47.651Z,13.81
2018-04-10T23:12:20.952Z,13.76
2018-04-10T23:14:54.217Z,13.72
2018-04-10T23:17:28.262Z,13.67
2018-04-10T23:20:01.524Z,13.64
2018-04-10T23:22:35.253Z,13.62
2018-04-10T23:25:08.511Z,13.57
2018-04-10T23:27:41.776Z,13.56
2018-04-10T23:30:15.032Z,13.55
2018-04-10T23:32:49.075Z,13.47
2018-04-10T23:35:22.338Z,13.33
2018-04-10T23:37:55.606Z,13.25
2018-04-10T23:40:28.871Z,13.13
2018-04-10T23:43:02.154Z,13.07
2018-04-10T23:45:35.416Z,12.99
2018-04-10T23:48:09.465Z,12.90
2018-04-10T23:50:42.715Z,12.79
2018-04-10T23:53:16.003Z,12.74
2018-04-10T23:55:49.265Z,12.69
2018-04-10T23:58:22.536Z,12.67
